sensor_id;sensor_type;location;lat;lon;timestamp;temperature;humidity
35085;SHT85;21267;51.032;6.998;2022-08-27T00:01:38;19.19;86.26
35085;SHT85;21267;51.032;6.998;2022-08-27T00:04:05;19.12;86.64
35085;SHT85;21267;51.032;6.998;2022-08-27T00:06:31;19.12;86.80
35085;SHT85;21267;51.032;6.998;2022-08-27T00:08:58;19.12;86.54
35085;SHT85;21267;51.032;6.998;2022-08-27T00:11:25;19.15;86.63
35085;SHT85;21267;51.032;6.998;2022-08-27T00:13:51;18.99;87.15
35085;SHT85;21267;51.032;6.998;2022-08-27T00:16:19;18.94;87.64
35085;SHT85;21267;51.032;6.998;2022-08-27T00:18:46;19.02;87.35
35085;SHT85;21267;51.032;6.998;2022-08-27T00:21:13;18.99;87.71
35085;SHT85;21267;51.032;6.998;2022-08-27T00:23:40;19.01;87.53
35085;SHT85;21267;51.032;6.998;2022-08-27T00:26:07;19.05;87.59
35085;SHT85;21267;51.032;6.998;2022-08-27T00:28:36;19.09;87.40
35085;SHT85;21267;51.032;6.998;2022-08-27T00:31:03;19.16;86.83
35085;SHT85;21267;51.032;6.998;2022-08-27T00:33:30;19.12;87.22
35085;SHT85;21267;51.032;6.998;2022-08-27T00:35:57;19.01;87.23
35085;SHT85;21267;51.032;6.998;2022-08-27T00:38:25;18.94;87.57
35085;SHT85;21267;51.032;6.998;2022-08-27T00:40:52;18.88;87.76
35085;SHT85;21267;51.032;6.998;2022-08-27T00:43:24;18.87;88.06
35085;SHT85;21267;51.032;6.998;2022-08-27T00:45:52;18.81;87.83
35085;SHT85;21267;51.032;6.998;2022-08-27T00:48:23;18.84;87.84
35085;SHT85;21267;51.032;6.998;2022-08-27T00:50:54;18.85;87.59
35085;SHT85;21267;51.032;6.998;2022-08-27T00:53:24;18.80;87.67
35085;SHT85;21267;51.032;6.998;2022-08-27T00:55:55;19.06;86.58
35085;SHT85;21267;51.032;6.998;2022-08-27T00:58:35;18.85;87.20
35085;SHT85;21267;51.032;6.998;2022-08-27T01:01:05;18.94;87.06
35085;SHT85;21267;51.032;6.998;2022-08-27T01:03:33;19.01;86.62
35085;SHT85;21267;51.032;6.998;2022-08-27T01:06:00;18.95;86.41
35085;SHT85;21267;51.032;6.998;2022-08-27T01:08:31;18.77;86.78
35085;SHT85;21267;51.032;6.998;2022-08-27T01:10:59;18.65;87.30
35085;SHT85;21267;51.032;6.998;2022-08-27T01:13:31;18.71;87.28
35085;SHT85;21267;51.032;6.998;2022-08-27T01:16:22;18.77;87.13
35085;SHT85;21267;51.032;6.998;2022-08-27T01:18:49;18.61;87.51
35085;SHT85;21267;51.032;6.998;2022-08-27T01:23:48;18.58;87.69
35085;SHT85;21267;51.032;6.998;2022-08-27T01:26:16;18.52;87.54
35085;SHT85;21267;51.032;6.998;2022-08-27T01:28:44;18.57;87.68
35085;SHT85;21267;51.032;6.998;2022-08-27T01:31:11;18.64;87.40
35085;SHT85;21267;51.032;6.998;2022-08-27T01:33:38;18.67;87.00
35085;SHT85;21267;51.032;6.998;2022-08-27T01:36:05;18.71;86.89
35085;SHT85;21267;51.032;6.998;2022-08-27T01:38:32;18.89;86.21
35085;SHT85;21267;51.032;6.998;2022-08-27T01:41:01;18.87;85.99
35085;SHT85;21267;51.032;6.998;2022-08-27T01:43:28;18.70;86.38
35085;SHT85;21267;51.032;6.998;2022-08-27T01:45:57;18.58;86.52
35085;SHT85;21267;51.032;6.998;2022-08-27T01:48:23;18.55;86.62
35085;SHT85;21267;51.032;6.998;2022-08-27T01:50:50;18.58;86.47
35085;SHT85;21267;51.032;6.998;2022-08-27T01:53:20;18.64;86.16
35085;SHT85;21267;51.032;6.998;2022-08-27T01:55:49;18.82;85.84
35085;SHT85;21267;51.032;6.998;2022-08-27T01:58:17;18.64;86.17
35085;SHT85;21267;51.032;6.998;2022-08-27T02:00:49;18.60;86.41
35085;SHT85;21267;51.032;6.998;2022-08-27T02:03:22;18.51;86.73
35085;SHT85;21267;51.032;6.998;2022-08-27T02:05:48;18.52;86.77
35085;SHT85;21267;51.032;6.998;2022-08-27T02:08:16;18.47;87.23
35085;SHT85;21267;51.032;6.998;2022-08-27T02:10:45;18.52;87.01
35085;SHT85;21267;51.032;6.998;2022-08-27T02:13:12;18.58;87.06
35085;SHT85;21267;51.032;6.998;2022-08-27T02:15:40;18.60;87.15
35085;SHT85;21267;51.032;6.998;2022-08-27T02:18:07;18.71;87.01
35085;SHT85;21267;51.032;6.998;2022-08-27T02:20:35;18.63;86.97
35085;SHT85;21267;51.032;6.998;2022-08-27T02:23:03;18.64;86.84
35085;SHT85;21267;51.032;6.998;2022-08-27T02:25:30;18.81;86.34
35085;SHT85;21267;51.032;6.998;2022-08-27T02:27:56;18.64;86.84
35085;SHT85;21267;51.032;6.998;2022-08-27T02:30:28;18.51;86.92
35085;SHT85;21267;51.032;6.998;2022-08-27T02:32:55;18.48;87.02
35085;SHT85;21267;51.032;6.998;2022-08-27T02:35:23;18.50;87.01
35085;SHT85;21267;51.032;6.998;2022-08-27T02:37:51;18.48;87.02
35085;SHT85;21267;51.032;6.998;2022-08-27T02:40:20;18.50;86.82
35085;SHT85;21267;51.032;6.998;2022-08-27T02:42:47;18.63;86.39
35085;SHT85;21267;51.032;6.998;2022-08-27T02:45:15;18.52;86.48
35085;SHT85;21267;51.032;6.998;2022-08-27T02:47:41;18.68;85.80
35085;SHT85;21267;51.032;6.998;2022-08-27T02:50:09;18.63;85.78
35085;SHT85;21267;51.032;6.998;2022-08-27T02:52:36;18.55;86.23
35085;SHT85;21267;51.032;6.998;2022-08-27T02:55:03;18.68;85.98
35085;SHT85;21267;51.032;6.998;2022-08-27T02:57:30;18.43;86.19
35085;SHT85;21267;51.032;6.998;2022-08-27T03:00:05;18.52;85.83
35085;SHT85;21267;51.032;6.998;2022-08-27T03:02:32;18.43;85.90
35085;SHT85;21267;51.032;6.998;2022-08-27T03:04:59;18.34;86.00
35085;SHT85;21267;51.032;6.998;2022-08-27T03:07:26;18.52;85.78
35085;SHT85;21267;51.032;6.998;2022-08-27T03:09:53;18.47;85.34
35085;SHT85;21267;51.032;6.998;2022-08-27T03:12:19;18.44;85.45
35085;SHT85;21267;51.032;6.998;2022-08-27T03:14:50;18.72;84.72
35085;SHT85;21267;51.032;6.998;2022-08-27T03:17:16;18.50;84.78
35085;SHT85;21267;51.032;6.998;2022-08-27T03:20:03;18.48;84.86
35085;SHT85;21267;51.032;6.998;2022-08-27T03:22:30;18.51;84.87
35085;SHT85;21267;51.032;6.998;2022-08-27T03:24:57;18.38;84.79
35085;SHT85;21267;51.032;6.998;2022-08-27T03:27:23;18.52;84.47
35085;SHT85;21267;51.032;6.998;2022-08-27T03:29:50;18.45;84.46
35085;SHT85;21267;51.032;6.998;2022-08-27T03:32:16;18.37;84.88
35085;SHT85;21267;51.032;6.998;2022-08-27T03:34:43;18.41;84.64
35085;SHT85;21267;51.032;6.998;2022-08-27T03:37:10;18.47;84.75
35085;SHT85;21267;51.032;6.998;2022-08-27T03:39:36;18.44;84.54
35085;SHT85;21267;51.032;6.998;2022-08-27T03:42:03;18.52;84.60
35085;SHT85;21267;51.032;6.998;2022-08-27T03:44:30;18.45;84.64
35085;SHT85;21267;51.032;6.998;2022-08-27T03:46:57;18.48;84.88
35085;SHT85;21267;51.032;6.998;2022-08-27T03:49:23;18.45;84.87
35085;SHT85;21267;51.032;6.998;2022-08-27T03:51:51;18.54;84.46
35085;SHT85;21267;51.032;6.998;2022-08-27T03:54:19;18.43;84.94
35085;SHT85;21267;51.032;6.998;2022-08-27T03:56:45;18.55;85.27
35085;SHT85;21267;51.032;6.998;2022-08-27T03:59:12;18.36;85.16
35085;SHT85;21267;51.032;6.998;2022-08-27T04:01:41;18.37;85.20
35085;SHT85;21267;51.032;6.998;2022-08-27T04:04:08;18.37;84.92
35085;SHT85;21267;51.032;6.998;2022-08-27T04:06:35;18.55;84.55
35085;SHT85;21267;51.032;6.998;2022-08-27T04:09:02;18.51;84.68
35085;SHT85;21267;51.032;6.998;2022-08-27T04:11:29;18.40;85.14
35085;SHT85;21267;51.032;6.998;2022-08-27T04:13:55;18.21;85.38
35085;SHT85;21267;51.032;6.998;2022-08-27T04:16:22;18.26;85.44
35085;SHT85;21267;51.032;6.998;2022-08-27T04:18:51;18.58;85.16
35085;SHT85;21267;51.032;6.998;2022-08-27T04:21:18;18.65;84.29
35085;SHT85;21267;51.032;6.998;2022-08-27T04:23:44;18.54;84.51
35085;SHT85;21267;51.032;6.998;2022-08-27T04:26:11;18.72;83.83
35085;SHT85;21267;51.032;6.998;2022-08-27T04:28:37;18.65;84.19
35085;SHT85;21267;51.032;6.998;2022-08-27T04:31:05;18.45;84.75
35085;SHT85;21267;51.032;6.998;2022-08-27T04:33:41;18.48;85.02
35085;SHT85;21267;51.032;6.998;2022-08-27T04:36:16;18.43;84.62
35085;SHT85;21267;51.032;6.998;2022-08-27T04:38:43;18.52;84.25
35085;SHT85;21267;51.032;6.998;2022-08-27T04:41:09;18.45;84.44
35085;SHT85;21267;51.032;6.998;2022-08-27T04:43:52;18.33;84.89
35085;SHT85;21267;51.032;6.998;2022-08-27T04:46:20;18.30;84.79
35085;SHT85;21267;51.032;6.998;2022-08-27T04:48:47;18.55;84.53
35085;SHT85;21267;51.032;6.998;2022-08-27T04:51:15;18.51;84.51
35085;SHT85;21267;51.032;6.998;2022-08-27T04:53:43;18.20;85.34
35085;SHT85;21267;51.032;6.998;2022-08-27T04:56:13;18.12;85.65
35085;SHT85;21267;51.032;6.998;2022-08-27T04:58:40;18.21;85.61
35085;SHT85;21267;51.032;6.998;2022-08-27T05:01:08;18.05;86.09
35085;SHT85;21267;51.032;6.998;2022-08-27T05:03:37;18.10;86.06
35085;SHT85;21267;51.032;6.998;2022-08-27T05:06:05;18.08;86.02
35085;SHT85;21267;51.032;6.998;2022-08-27T05:08:32;18.02;86.58
35085;SHT85;21267;51.032;6.998;2022-08-27T05:10:59;18.20;85.72
35085;SHT85;21267;51.032;6.998;2022-08-27T05:13:27;18.12;86.03
35085;SHT85;21267;51.032;6.998;2022-08-27T05:16:05;17.93;86.64
35085;SHT85;21267;51.032;6.998;2022-08-27T05:18:33;17.93;87.24
35085;SHT85;21267;51.032;6.998;2022-08-27T05:21:22;17.87;87.38
35085;SHT85;21267;51.032;6.998;2022-08-27T05:23:49;17.87;87.79
35085;SHT85;21267;51.032;6.998;2022-08-27T05:26:17;17.83;87.79
35085;SHT85;21267;51.032;6.998;2022-08-27T05:28:44;17.71;88.35
35085;SHT85;21267;51.032;6.998;2022-08-27T05:31:12;17.66;88.77
35085;SHT85;21267;51.032;6.998;2022-08-27T05:33:40;17.61;88.97
35085;SHT85;21267;51.032;6.998;2022-08-27T05:36:18;17.50;89.41
35085;SHT85;21267;51.032;6.998;2022-08-27T05:38:47;17.48;89.53
35085;SHT85;21267;51.032;6.998;2022-08-27T05:41:17;17.44;90.53
35085;SHT85;21267;51.032;6.998;2022-08-27T05:43:45;17.41;90.45
35085;SHT85;21267;51.032;6.998;2022-08-27T05:46:19;17.38;90.62
35085;SHT85;21267;51.032;6.998;2022-08-27T05:48:47;17.32;91.09
35085;SHT85;21267;51.032;6.998;2022-08-27T05:51:26;17.32;90.91
35085;SHT85;21267;51.032;6.998;2022-08-27T05:53:58;17.31;91.12
35085;SHT85;21267;51.032;6.998;2022-08-27T05:56:28;17.18;91.48
35085;SHT85;21267;51.032;6.998;2022-08-27T05:58:55;17.20;91.66
35085;SHT85;21267;51.032;6.998;2022-08-27T06:01:46;17.04;91.77
35085;SHT85;21267;51.032;6.998;2022-08-27T06:04:14;17.18;92.26
35085;SHT85;21267;51.032;6.998;2022-08-27T06:06:44;17.14;92.22
35085;SHT85;21267;51.032;6.998;2022-08-27T06:09:14;17.13;91.59
35085;SHT85;21267;51.032;6.998;2022-08-27T06:11:41;17.17;92.15
35085;SHT85;21267;51.032;6.998;2022-08-27T06:14:08;17.03;92.38
35085;SHT85;21267;51.032;6.998;2022-08-27T06:16:36;16.99;92.35
35085;SHT85;21267;51.032;6.998;2022-08-27T06:19:05;16.96;92.75
35085;SHT85;21267;51.032;6.998;2022-08-27T06:21:32;17.10;92.56
35085;SHT85;21267;51.032;6.998;2022-08-27T06:23:59;17.17;92.28
35085;SHT85;21267;51.032;6.998;2022-08-27T06:26:26;17.02;92.96
35085;SHT85;21267;51.032;6.998;2022-08-27T06:28:53;17.07;93.06
35085;SHT85;21267;51.032;6.998;2022-08-27T06:33:39;17.07;93.12
35085;SHT85;21267;51.032;6.998;2022-08-27T06:36:08;17.11;92.94
35085;SHT85;21267;51.032;6.998;2022-08-27T06:38:36;17.02;93.26
35085;SHT85;21267;51.032;6.998;2022-08-27T06:41:05;17.08;93.42
35085;SHT85;21267;51.032;6.998;2022-08-27T06:43:42;17.07;93.28
35085;SHT85;21267;51.032;6.998;2022-08-27T06:46:12;17.04;92.79
35085;SHT85;21267;51.032;6.998;2022-08-27T06:48:40;17.15;92.63
35085;SHT85;21267;51.032;6.998;2022-08-27T06:51:16;17.07;92.30
35085;SHT85;21267;51.032;6.998;2022-08-27T06:53:44;17.07;92.73
35085;SHT85;21267;51.032;6.998;2022-08-27T06:56:14;17.13;92.60
35085;SHT85;21267;51.032;6.998;2022-08-27T06:58:41;17.04;93.12
35085;SHT85;21267;51.032;6.998;2022-08-27T07:01:19;17.34;92.71
35085;SHT85;21267;51.032;6.998;2022-08-27T07:03:47;17.21;92.28
35085;SHT85;21267;51.032;6.998;2022-08-27T07:06:15;17.21;92.56
35085;SHT85;21267;51.032;6.998;2022-08-27T07:08:42;17.24;92.45
35085;SHT85;21267;51.032;6.998;2022-08-27T07:11:18;17.45;91.96
35085;SHT85;21267;51.032;6.998;2022-08-27T07:13:47;17.24;92.36
35085;SHT85;21267;51.032;6.998;2022-08-27T07:16:16;17.21;92.14
35085;SHT85;21267;51.032;6.998;2022-08-27T07:18:44;17.11;92.04
35085;SHT85;21267;51.032;6.998;2022-08-27T07:21:11;17.04;92.21
35085;SHT85;21267;51.032;6.998;2022-08-27T07:23:38;17.03;92.15
35085;SHT85;21267;51.032;6.998;2022-08-27T07:26:09;17.11;91.57
35085;SHT85;21267;51.032;6.998;2022-08-27T07:28:37;17.13;92.39
35085;SHT85;21267;51.032;6.998;2022-08-27T07:31:06;17.34;91.46
35085;SHT85;21267;51.032;6.998;2022-08-27T07:33:35;17.32;91.40
35085;SHT85;21267;51.032;6.998;2022-08-27T07:36:04;17.45;91.36
35085;SHT85;21267;51.032;6.998;2022-08-27T07:38:32;17.51;91.21
35085;SHT85;21267;51.032;6.998;2022-08-27T07:41:02;17.26;90.76
35085;SHT85;21267;51.032;6.998;2022-08-27T07:43:29;17.47;90.96
35085;SHT85;21267;51.032;6.998;2022-08-27T07:46:19;17.34;90.94
35085;SHT85;21267;51.032;6.998;2022-08-27T07:48:48;17.38;90.97
35085;SHT85;21267;51.032;6.998;2022-08-27T07:51:18;17.47;90.75
35085;SHT85;21267;51.032;6.998;2022-08-27T07:53:46;17.66;90.60
35085;SHT85;21267;51.032;6.998;2022-08-27T07:56:13;17.51;90.45
35085;SHT85;21267;51.032;6.998;2022-08-27T07:58:40;17.59;90.47
35085;SHT85;21267;51.032;6.998;2022-08-27T08:01:07;17.68;90.10
35085;SHT85;21267;51.032;6.998;2022-08-27T08:03:34;17.71;89.99
35085;SHT85;21267;51.032;6.998;2022-08-27T08:06:10;17.83;89.59
35085;SHT85;21267;51.032;6.998;2022-08-27T08:08:38;17.92;89.31
35085;SHT85;21267;51.032;6.998;2022-08-27T08:11:12;17.78;89.40
35085;SHT85;21267;51.032;6.998;2022-08-27T08:13:38;17.86;89.27
35085;SHT85;21267;51.032;6.998;2022-08-27T08:16:05;18.08;89.25
35085;SHT85;21267;51.032;6.998;2022-08-27T08:18:33;18.08;88.89
35085;SHT85;21267;51.032;6.998;2022-08-27T08:21:02;18.23;87.86
35085;SHT85;21267;51.032;6.998;2022-08-27T08:23:29;18.09;88.10
35085;SHT85;21267;51.032;6.998;2022-08-27T08:26:00;17.91;88.39
35085;SHT85;21267;51.032;6.998;2022-08-27T08:28:27;18.06;88.66
35085;SHT85;21267;51.032;6.998;2022-08-27T08:30:56;18.03;88.54
35085;SHT85;21267;51.032;6.998;2022-08-27T08:33:23;17.95;88.53
35085;SHT85;21267;51.032;6.998;2022-08-27T08:35:50;18.08;88.22
35085;SHT85;21267;51.032;6.998;2022-08-27T08:38:18;18.12;87.99
35085;SHT85;21267;51.032;6.998;2022-08-27T08:40:48;18.05;87.76
35085;SHT85;21267;51.032;6.998;2022-08-27T08:43:30;17.92;87.90
35085;SHT85;21267;51.032;6.998;2022-08-27T08:46:04;17.99;87.97
35085;SHT85;21267;51.032;6.998;2022-08-27T08:48:34;18.26;87.27
35085;SHT85;21267;51.032;6.998;2022-08-27T08:51:09;18.29;87.14
35085;SHT85;21267;51.032;6.998;2022-08-27T08:53:44;18.38;87.11
35085;SHT85;21267;51.032;6.998;2022-08-27T08:56:20;18.47;86.64
35085;SHT85;21267;51.032;6.998;2022-08-27T08:58:58;18.70;86.00
35085;SHT85;21267;51.032;6.998;2022-08-27T09:01:27;18.88;85.06
35085;SHT85;21267;51.032;6.998;2022-08-27T09:04:02;18.84;85.10
35085;SHT85;21267;51.032;6.998;2022-08-27T09:06:51;18.82;85.11
35085;SHT85;21267;51.032;6.998;2022-08-27T09:12:07;18.74;85.49
35085;SHT85;21267;51.032;6.998;2022-08-27T09:14:45;18.70;85.03
35085;SHT85;21267;51.032;6.998;2022-08-27T09:17:13;18.68;84.64
35085;SHT85;21267;51.032;6.998;2022-08-27T09:19:40;18.77;84.61
35085;SHT85;21267;51.032;6.998;2022-08-27T09:25:10;18.92;84.09
35085;SHT85;21267;51.032;6.998;2022-08-27T09:27:44;18.82;84.99
35085;SHT85;21267;51.032;6.998;2022-08-27T09:30:17;19.05;83.93
35085;SHT85;21267;51.032;6.998;2022-08-27T09:32:55;19.06;83.80
35085;SHT85;21267;51.032;6.998;2022-08-27T09:35:25;18.96;83.73
35085;SHT85;21267;51.032;6.998;2022-08-27T09:37:54;19.03;83.86
35085;SHT85;21267;51.032;6.998;2022-08-27T09:40:26;18.98;83.91
35085;SHT85;21267;51.032;6.998;2022-08-27T09:43:06;19.26;83.35
35085;SHT85;21267;51.032;6.998;2022-08-27T09:45:34;19.40;82.91
35085;SHT85;21267;51.032;6.998;2022-08-27T09:48:09;19.60;82.05
35085;SHT85;21267;51.032;6.998;2022-08-27T09:50:40;19.61;81.86
35085;SHT85;21267;51.032;6.998;2022-08-27T09:53:19;19.67;81.18
35085;SHT85;21267;51.032;6.998;2022-08-27T09:55:51;19.77;81.00
35085;SHT85;21267;51.032;6.998;2022-08-27T09:58:32;19.94;81.02
35085;SHT85;21267;51.032;6.998;2022-08-27T10:01:19;19.92;80.86
35085;SHT85;21267;51.032;6.998;2022-08-27T10:03:47;19.88;80.64
35085;SHT85;21267;51.032;6.998;2022-08-27T10:06:26;20.14;79.87
35085;SHT85;21267;51.032;6.998;2022-08-27T10:08:56;19.88;79.10
35085;SHT85;21267;51.032;6.998;2022-08-27T10:11:29;19.77;79.50
35085;SHT85;21267;51.032;6.998;2022-08-27T10:14:02;19.75;79.86
35085;SHT85;21267;51.032;6.998;2022-08-27T10:16:53;19.63;79.99
35085;SHT85;21267;51.032;6.998;2022-08-27T10:27:38;19.94;78.83
35085;SHT85;21267;51.032;6.998;2022-08-27T10:30:11;19.92;79.11
35085;SHT85;21267;51.032;6.998;2022-08-27T10:35:42;19.90;78.93
35085;SHT85;21267;51.032;6.998;2022-08-27T10:38:39;19.88;78.47
35085;SHT85;21267;51.032;6.998;2022-08-27T10:41:17;20.02;78.68
35085;SHT85;21267;51.032;6.998;2022-08-27T10:43:55;19.97;78.39
35085;SHT85;21267;51.032;6.998;2022-08-27T10:54:35;19.67;78.31
35085;SHT85;21267;51.032;6.998;2022-08-27T10:57:14;19.61;78.59
35085;SHT85;21267;51.032;6.998;2022-08-27T11:00:09;19.70;78.39
35085;SHT85;21267;51.032;6.998;2022-08-27T11:02:43;19.74;78.24
35085;SHT85;21267;51.032;6.998;2022-08-27T11:05:44;19.88;77.42
35085;SHT85;21267;51.032;6.998;2022-08-27T11:08:18;19.87;77.25
35085;SHT85;21267;51.032;6.998;2022-08-27T11:10:52;20.00;76.76
35085;SHT85;21267;51.032;6.998;2022-08-27T11:13:36;20.25;76.36
35085;SHT85;21267;51.032;6.998;2022-08-27T11:16:16;20.48;75.54
35085;SHT85;21267;51.032;6.998;2022-08-27T11:18:55;20.52;75.55
35085;SHT85;21267;51.032;6.998;2022-08-27T11:21:40;20.46;75.37
35085;SHT85;21267;51.032;6.998;2022-08-27T11:27:05;20.18;75.48
35085;SHT85;21267;51.032;6.998;2022-08-27T11:29:37;20.32;75.48
35085;SHT85;21267;51.032;6.998;2022-08-27T11:32:24;20.25;74.87
35085;SHT85;21267;51.032;6.998;2022-08-27T11:34:59;20.42;75.52
35085;SHT85;21267;51.032;6.998;2022-08-27T11:43:23;20.56;74.89
35085;SHT85;21267;51.032;6.998;2022-08-27T11:46:05;20.55;74.48
35085;SHT85;21267;51.032;6.998;2022-08-27T11:48:37;20.46;75.00
35085;SHT85;21267;51.032;6.998;2022-08-27T11:51:25;20.72;73.83
35085;SHT85;21267;51.032;6.998;2022-08-27T11:53:57;20.70;73.97
35085;SHT85;21267;51.032;6.998;2022-08-27T11:58:54;20.62;73.67
35085;SHT85;21267;51.032;6.998;2022-08-27T12:01:25;20.81;73.45
35085;SHT85;21267;51.032;6.998;2022-08-27T12:04:18;20.98;72.76
35085;SHT85;21267;51.032;6.998;2022-08-27T12:06:51;21.06;72.43
35085;SHT85;21267;51.032;6.998;2022-08-27T12:09:21;21.21;71.99
35085;SHT85;21267;51.032;6.998;2022-08-27T12:14:46;21.32;71.82
35085;SHT85;21267;51.032;6.998;2022-08-27T12:17:26;21.51;70.86
35085;SHT85;21267;51.032;6.998;2022-08-27T12:20:05;21.69;70.53
35085;SHT85;21267;51.032;6.998;2022-08-27T12:25:27;21.82;69.59
35085;SHT85;21267;51.032;6.998;2022-08-27T12:27:57;21.83;69.43
35085;SHT85;21267;51.032;6.998;2022-08-27T12:30:36;21.82;69.50
35085;SHT85;21267;51.032;6.998;2022-08-27T12:35:47;21.89;69.35
35085;SHT85;21267;51.032;6.998;2022-08-27T12:38:19;21.95;68.51
35085;SHT85;21267;51.032;6.998;2022-08-27T12:40:53;21.89;68.30
35085;SHT85;21267;51.032;6.998;2022-08-27T12:43:22;21.99;68.20
35085;SHT85;21267;51.032;6.998;2022-08-27T12:45:54;21.66;68.84
35085;SHT85;21267;51.032;6.998;2022-08-27T12:48:26;21.59;68.88
35085;SHT85;21267;51.032;6.998;2022-08-27T12:50:56;21.62;68.97
35085;SHT85;21267;51.032;6.998;2022-08-27T13:04:41;21.95;68.31
35085;SHT85;21267;51.032;6.998;2022-08-27T13:07:08;22.04;68.11
35085;SHT85;21267;51.032;6.998;2022-08-27T13:09:37;22.24;67.75
35085;SHT85;21267;51.032;6.998;2022-08-27T13:12:12;22.19;67.75
35085;SHT85;21267;51.032;6.998;2022-08-27T13:14:40;21.72;68.42
35085;SHT85;21267;51.032;6.998;2022-08-27T13:17:14;22.06;67.88
35085;SHT85;21267;51.032;6.998;2022-08-27T13:19:46;22.20;67.58
35085;SHT85;21267;51.032;6.998;2022-08-27T13:22:24;22.23;67.45
35085;SHT85;21267;51.032;6.998;2022-08-27T13:24:54;22.29;67.14
35085;SHT85;21267;51.032;6.998;2022-08-27T13:27:25;22.34;66.94
35085;SHT85;21267;51.032;6.998;2022-08-27T13:29:52;22.45;66.34
35085;SHT85;21267;51.032;6.998;2022-08-27T13:32:20;22.43;66.18
35085;SHT85;21267;51.032;6.998;2022-08-27T13:34:48;22.32;66.51
35085;SHT85;21267;51.032;6.998;2022-08-27T13:37:54;21.85;67.74
35085;SHT85;21267;51.032;6.998;2022-08-27T13:40:30;22.59;66.04
35085;SHT85;21267;51.032;6.998;2022-08-27T13:43:03;22.39;66.27
35085;SHT85;21267;51.032;6.998;2022-08-27T13:45:34;22.34;66.68
35085;SHT85;21267;51.032;6.998;2022-08-27T13:48:03;22.43;66.33
35085;SHT85;21267;51.032;6.998;2022-08-27T13:50:32;22.53;65.90
35085;SHT85;21267;51.032;6.998;2022-08-27T13:53:04;22.10;66.81
35085;SHT85;21267;51.032;6.998;2022-08-27T13:55:50;22.34;66.93
35085;SHT85;21267;51.032;6.998;2022-08-27T13:58:26;22.24;66.50
35085;SHT85;21267;51.032;6.998;2022-08-27T14:00:54;22.39;66.00
35085;SHT85;21267;51.032;6.998;2022-08-27T14:03:32;22.32;66.86
35085;SHT85;21267;51.032;6.998;2022-08-27T14:05:59;22.19;66.59
35085;SHT85;21267;51.032;6.998;2022-08-27T14:08:28;22.43;65.96
35085;SHT85;21267;51.032;6.998;2022-08-27T14:11:09;22.33;65.99
35085;SHT85;21267;51.032;6.998;2022-08-27T14:13:46;22.34;65.81
35085;SHT85;21267;51.032;6.998;2022-08-27T14:16:24;22.32;65.76
35085;SHT85;21267;51.032;6.998;2022-08-27T14:21:41;22.32;66.04
35085;SHT85;21267;51.032;6.998;2022-08-27T14:24:11;22.27;65.92
35085;SHT85;21267;51.032;6.998;2022-08-27T14:26:39;22.30;65.78
35085;SHT85;21267;51.032;6.998;2022-08-27T14:29:05;22.08;66.13
35085;SHT85;21267;51.032;6.998;2022-08-27T14:31:37;22.10;66.15
35085;SHT85;21267;51.032;6.998;2022-08-27T14:34:05;22.17;66.61
35085;SHT85;21267;51.032;6.998;2022-08-27T14:36:34;22.36;65.99
35085;SHT85;21267;51.032;6.998;2022-08-27T14:39:03;22.43;65.79
35085;SHT85;21267;51.032;6.998;2022-08-27T14:41:30;22.72;65.56
35085;SHT85;21267;51.032;6.998;2022-08-27T14:43:58;22.54;65.21
35085;SHT85;21267;51.032;6.998;2022-08-27T14:46:27;22.64;64.62
35085;SHT85;21267;51.032;6.998;2022-08-27T14:48:55;22.60;65.00
35085;SHT85;21267;51.032;6.998;2022-08-27T14:51:27;22.60;65.12
35085;SHT85;21267;51.032;6.998;2022-08-27T14:53:55;22.43;64.90
35085;SHT85;21267;51.032;6.998;2022-08-27T14:56:23;22.33;64.94
35085;SHT85;21267;51.032;6.998;2022-08-27T14:58:50;22.32;65.26
35085;SHT85;21267;51.032;6.998;2022-08-27T15:01:19;22.32;65.23
35085;SHT85;21267;51.032;6.998;2022-08-27T15:03:49;22.32;65.36
35085;SHT85;21267;51.032;6.998;2022-08-27T15:06:17;22.27;65.04
35085;SHT85;21267;51.032;6.998;2022-08-27T15:08:48;22.32;65.04
35085;SHT85;21267;51.032;6.998;2022-08-27T15:11:22;22.20;65.05
35085;SHT85;21267;51.032;6.998;2022-08-27T15:13:50;22.29;65.10
35085;SHT85;21267;51.032;6.998;2022-08-27T15:16:36;22.29;64.90
35085;SHT85;21267;51.032;6.998;2022-08-27T15:19:08;22.20;65.02
35085;SHT85;21267;51.032;6.998;2022-08-27T15:21:36;22.32;64.64
35085;SHT85;21267;51.032;6.998;2022-08-27T15:24:26;21.99;65.13
35085;SHT85;21267;51.032;6.998;2022-08-27T15:26:55;21.92;65.20
35085;SHT85;21267;51.032;6.998;2022-08-27T15:29:25;22.10;65.09
35085;SHT85;21267;51.032;6.998;2022-08-27T15:31:52;22.10;64.86
35085;SHT85;21267;51.032;6.998;2022-08-27T15:34:19;22.08;65.02
35085;SHT85;21267;51.032;6.998;2022-08-27T15:36:46;21.99;64.90
35085;SHT85;21267;51.032;6.998;2022-08-27T15:39:13;21.99;65.51
35085;SHT85;21267;51.032;6.998;2022-08-27T15:41:40;22.10;64.76
35085;SHT85;21267;51.032;6.998;2022-08-27T15:44:27;22.04;64.78
35085;SHT85;21267;51.032;6.998;2022-08-27T15:46:54;22.08;64.57
35085;SHT85;21267;51.032;6.998;2022-08-27T15:49:21;21.97;64.78
35085;SHT85;21267;51.032;6.998;2022-08-27T15:51:47;22.16;64.50
35085;SHT85;21267;51.032;6.998;2022-08-27T15:54:17;22.13;64.57
35085;SHT85;21267;51.032;6.998;2022-08-27T15:56:44;22.04;64.54
35085;SHT85;21267;51.032;6.998;2022-08-27T15:59:10;22.24;64.47
35085;SHT85;21267;51.032;6.998;2022-08-27T16:01:37;22.16;64.69
35085;SHT85;21267;51.032;6.998;2022-08-27T16:04:05;22.26;64.55
35085;SHT85;21267;51.032;6.998;2022-08-27T16:06:32;22.30;64.61
35085;SHT85;21267;51.032;6.998;2022-08-27T16:09:01;22.39;64.21
35085;SHT85;21267;51.032;6.998;2022-08-27T16:11:27;22.29;64.20
35085;SHT85;21267;51.032;6.998;2022-08-27T16:13:54;22.22;64.59
35085;SHT85;21267;51.032;6.998;2022-08-27T16:16:25;22.14;64.30
35085;SHT85;21267;51.032;6.998;2022-08-27T16:18:53;22.17;64.18
35085;SHT85;21267;51.032;6.998;2022-08-27T16:21:20;22.13;64.28
35085;SHT85;21267;51.032;6.998;2022-08-27T16:23:47;22.06;64.64
35085;SHT85;21267;51.032;6.998;2022-08-27T16:26:14;22.03;64.54
35085;SHT85;21267;51.032;6.998;2022-08-27T16:28:41;22.06;64.73
35085;SHT85;21267;51.032;6.998;2022-08-27T16:31:10;22.00;64.76
35085;SHT85;21267;51.032;6.998;2022-08-27T16:33:40;22.04;64.78
35085;SHT85;21267;51.032;6.998;2022-08-27T16:36:08;22.00;64.57
35085;SHT85;21267;51.032;6.998;2022-08-27T16:38:35;22.04;64.87
35085;SHT85;21267;51.032;6.998;2022-08-27T16:41:02;22.03;64.49
35085;SHT85;21267;51.032;6.998;2022-08-27T16:43:29;21.96;64.56
35085;SHT85;21267;51.032;6.998;2022-08-27T16:45:57;21.83;64.93
35085;SHT85;21267;51.032;6.998;2022-08-27T16:48:25;21.82;65.17
35085;SHT85;21267;51.032;6.998;2022-08-27T16:51:20;21.88;65.01
35085;SHT85;21267;51.032;6.998;2022-08-27T16:53:48;21.95;64.63
35085;SHT85;21267;51.032;6.998;2022-08-27T16:56:17;21.86;64.90